createdAt,value
2022-10-07T00:00:55.675Z,7.90
2022-10-07T00:03:24.288Z,7.90
2022-10-07T00:06:27.146Z,7.80
2022-10-07T00:08:54.739Z,7.90
2022-10-07T00:11:27.146Z,7.90
2022-10-07T00:14:02.898Z,7.90
2022-10-07T00:16:32.424Z,7.80
2022-10-07T00:19:02.442Z,7.90
2022-10-07T00:21:31.454Z,7.80
2022-10-07T00:23:58.496Z,7.90
2022-10-07T00:26:28.273Z,7.90
2022-10-07T00:28:55.825Z,7.80
2022-10-07T00:31:27.876Z,7.70
2022-10-07T00:33:56.561Z,7.60
2022-10-07T00:36:25.788Z,7.50
2022-10-07T00:38:53.514Z,7.50
2022-10-07T00:41:30.492Z,7.40
2022-10-07T00:43:58.626Z,7.40
2022-10-07T00:46:25.507Z,7.40
2022-10-07T00:48:52.888Z,7.40
2022-10-07T00:51:19.857Z,7.40
2022-10-07T00:53:51.011Z,7.50
2022-10-07T00:56:18.192Z,7.50
2022-10-07T00:58:48.281Z,7.50
2022-10-07T01:01:15.934Z,7.50
2022-10-07T01:03:43.285Z,7.50
2022-10-07T01:06:10.470Z,7.60
2022-10-07T01:08:37.356Z,7.50
2022-10-07T01:11:26.072Z,7.30
2022-10-07T01:14:02.845Z,7.50
2022-10-07T01:16:38.683Z,7.40
2022-10-07T01:19:11.434Z,7.40
2022-10-07T01:21:44.030Z,7.50
2022-10-07T01:24:29.162Z,7.50
2022-10-07T01:27:04.735Z,7.60
2022-10-07T01:29:47.758Z,7.50
2022-10-07T01:32:38.214Z,7.60
2022-10-07T01:35:10.055Z,7.60
2022-10-07T01:37:42.695Z,7.50
2022-10-07T01:40:15.699Z,7.50
2022-10-07T01:42:44.511Z,7.50
2022-10-07T01:45:14.292Z,7.50
2022-10-07T01:47:41.192Z,7.50
2022-10-07T01:50:12.961Z,7.40
2022-10-07T01:52:48.553Z,7.30
2022-10-07T01:55:35.307Z,7.40
2022-10-07T01:58:16.283Z,7.30
2022-10-07T02:00:48.319Z,7.20
2022-10-07T02:03:35.000Z,7.30
2022-10-07T02:06:26.769Z,7.30
2022-10-07T02:08:55.727Z,7.30
2022-10-07T02:11:28.927Z,7.20
2022-10-07T02:14:18.673Z,7.30
2022-10-07T02:16:55.192Z,7.20
2022-10-07T02:19:28.500Z,7.20
2022-10-07T02:21:57.438Z,7.20
2022-10-07T02:24:27.513Z,7.10
2022-10-07T02:26:55.778Z,7.10
2022-10-07T02:29:24.320Z,7.20
2022-10-07T02:31:52.712Z,7.10
2022-10-07T02:34:23.066Z,7.00
2022-10-07T02:36:54.808Z,7.00
2022-10-07T02:39:21.675Z,6.90
2022-10-07T02:42:09.724Z,6.90
2022-10-07T02:44:56.887Z,6.90
2022-10-07T02:47:45.492Z,6.90
2022-10-07T02:50:17.408Z,6.80
2022-10-07T02:52:45.525Z,6.80
2022-10-07T02:55:17.406Z,6.90
2022-10-07T02:57:50.215Z,6.90
2022-10-07T03:00:18.336Z,7.00
2022-10-07T03:02:57.053Z,6.90
2022-10-07T03:05:26.003Z,7.00
2022-10-07T03:07:59.232Z,7.00
2022-10-07T03:10:31.811Z,6.90
2022-10-07T03:12:58.788Z,6.90
2022-10-07T03:15:25.960Z,6.90
2022-10-07T03:17:52.945Z,7.00
2022-10-07T03:20:19.676Z,7.00
2022-10-07T03:22:46.445Z,6.90
2022-10-07T03:25:14.036Z,6.80
2022-10-07T03:27:42.792Z,6.80
2022-10-07T03:30:11.354Z,6.80
2022-10-07T03:32:41.809Z,6.80
2022-10-07T03:35:09.101Z,6.80
2022-10-07T03:37:36.449Z,6.70
2022-10-07T03:40:03.679Z,6.70
2022-10-07T03:42:30.488Z,6.80
2022-10-07T03:44:57.257Z,6.70
2022-10-07T03:47:24.058Z,6.80
2022-10-07T03:49:50.813Z,6.70
2022-10-07T03:52:17.524Z,6.80
2022-10-07T03:54:44.752Z,6.80
2022-10-07T03:57:31.799Z,6.80
2022-10-07T03:59:58.839Z,6.70
2022-10-07T04:02:25.640Z,6.70
2022-10-07T04:04:55.310Z,6.70
2022-10-07T04:07:22.659Z,6.70
2022-10-07T04:09:49.528Z,6.70
2022-10-07T04:12:16.563Z,6.60
2022-10-07T04:14:43.295Z,6.70
2022-10-07T04:17:10.065Z,6.60
2022-10-07T04:19:37.240Z,6.50
2022-10-07T04:22:08.828Z,6.50
2022-10-07T04:24:36.001Z,6.60
2022-10-07T04:27:06.083Z,6.60
2022-10-07T04:29:36.763Z,6.60
2022-10-07T04:32:05.813Z,6.70
2022-10-07T04:34:32.527Z,6.60
2022-10-07T04:37:01.062Z,6.60
2022-10-07T04:39:49.103Z,6.60
2022-10-07T04:42:33.530Z,6.70
2022-10-07T04:45:00.331Z,6.60
2022-10-07T04:47:27.087Z,6.70
2022-10-07T04:49:54.425Z,6.70
2022-10-07T04:52:21.238Z,6.60
2022-10-07T04:54:48.009Z,6.60
2022-10-07T04:57:14.819Z,6.60
2022-10-07T04:59:43.066Z,6.60
2022-10-07T05:02:10.298Z,6.60
2022-10-07T05:04:37.208Z,6.60
2022-10-07T05:07:04.413Z,6.60
2022-10-07T05:09:31.309Z,6.60
2022-10-07T05:11:58.096Z,6.60
2022-10-07T05:14:24.923Z,6.60
2022-10-07T05:16:51.919Z,6.60
2022-10-07T05:19:20.092Z,6.60
2022-10-07T05:21:46.953Z,6.60
2022-10-07T05:24:13.733Z,6.60
2022-10-07T05:26:41.369Z,6.60
2022-10-07T05:29:08.874Z,6.60
2022-10-07T05:31:35.746Z,6.60
2022-10-07T05:34:02.969Z,6.60
2022-10-07T05:36:29.898Z,6.60
2022-10-07T05:38:59.985Z,6.60
2022-10-07T05:41:28.375Z,6.70
2022-10-07T05:43:55.358Z,6.60
2022-10-07T05:46:23.687Z,6.70
2022-10-07T05:48:52.511Z,6.70
2022-10-07T05:51:21.231Z,6.70
2022-10-07T05:53:48.285Z,6.60
2022-10-07T05:56:22.671Z,6.60
2022-10-07T05:58:50.632Z,6.70
2022-10-07T06:01:19.742Z,6.60
2022-10-07T06:03:55.075Z,6.60
2022-10-07T06:06:21.995Z,6.60
2022-10-07T06:08:49.994Z,6.60
2022-10-07T06:11:36.302Z,6.70
2022-10-07T06:14:03.893Z,6.70
2022-10-07T06:16:31.104Z,6.80
2022-10-07T06:18:58.038Z,6.80
2022-10-07T06:21:28.214Z,6.90
2022-10-07T06:23:56.811Z,6.90
2022-10-07T06:26:24.284Z,6.90
2022-10-07T06:28:51.133Z,7.00
2022-10-07T06:31:25.179Z,7.00
2022-10-07T06:33:52.539Z,7.10
2022-10-07T06:36:19.636Z,7.10
2022-10-07T06:38:47.887Z,7.20
2022-10-07T06:41:15.892Z,7.20
2022-10-07T06:43:43.236Z,7.20
2022-10-07T06:46:14.874Z,7.30
2022-10-07T06:48:42.981Z,7.30
2022-10-07T06:51:14.304Z,7.40
2022-10-07T06:53:44.283Z,7.50
2022-10-07T06:56:13.732Z,7.60
2022-10-07T06:58:40.837Z,7.60
2022-10-07T07:01:07.667Z,7.80
2022-10-07T07:03:34.503Z,7.80
2022-10-07T07:06:02.128Z,7.80
2022-10-07T07:08:31.923Z,7.90
2022-10-07T07:11:27.551Z,8.00
2022-10-07T07:13:54.822Z,8.00
2022-10-07T07:16:22.192Z,8.10
2022-10-07T07:18:56.821Z,8.20
2022-10-07T07:21:24.171Z,8.20
2022-10-07T07:23:51.327Z,8.30
2022-10-07T07:26:19.550Z,8.40
2022-10-07T07:28:58.801Z,8.40
2022-10-07T07:31:27.781Z,8.60
2022-10-07T07:33:55.438Z,8.60
2022-10-07T07:36:25.016Z,8.70
2022-10-07T07:38:53.115Z,8.70
2022-10-07T07:41:29.417Z,8.80
2022-10-07T07:43:58.659Z,8.90
2022-10-07T07:46:29.516Z,9.10
2022-10-07T07:48:56.315Z,9.30
2022-10-07T07:51:23.161Z,9.40
2022-10-07T07:53:50.311Z,9.50
2022-10-07T07:56:18.302Z,9.70
2022-10-07T07:58:45.383Z,9.80
2022-10-07T08:01:15.745Z,9.80
2022-10-07T08:03:44.545Z,9.90
2022-10-07T08:06:12.695Z,10.00
2022-10-07T08:08:43.127Z,10.20
2022-10-07T08:11:12.536Z,10.20
2022-10-07T08:13:41.292Z,10.20
2022-10-07T08:16:13.378Z,10.40
2022-10-07T08:18:46.073Z,10.60
2022-10-07T08:21:13.815Z,10.60
2022-10-07T08:23:41.430Z,10.80
2022-10-07T08:26:09.967Z,10.90
2022-10-07T08:28:37.708Z,11.10
2022-10-07T08:31:07.100Z,11.20
2022-10-07T08:33:36.587Z,11.40
2022-10-07T08:36:05.668Z,11.40
2022-10-07T08:38:34.674Z,11.50
2022-10-07T08:41:16.198Z,11.70
2022-10-07T08:43:49.271Z,11.90
2022-10-07T08:46:17.771Z,12.10
2022-10-07T08:49:04.906Z,12.10
2022-10-07T08:51:40.770Z,12.20
2022-10-07T08:54:13.852Z,12.20
2022-10-07T08:56:40.980Z,12.40
2022-10-07T08:59:22.764Z,12.50
2022-10-07T09:02:13.994Z,12.60
2022-10-07T09:04:41.330Z,12.90
2022-10-07T09:07:14.705Z,13.20
2022-10-07T09:09:53.865Z,13.40
2022-10-07T09:12:50.303Z,13.50
2022-10-07T09:15:34.830Z,13.70
2022-10-07T09:18:27.706Z,13.70
2022-10-07T09:20:56.445Z,13.80
2022-10-07T09:23:28.018Z,13.80
2022-10-07T09:25:55.194Z,14.10
2022-10-07T09:28:27.486Z,14.20
2022-10-07T09:30:54.745Z,14.40
2022-10-07T09:33:23.657Z,14.50
2022-10-07T09:35:57.739Z,14.50
2022-10-07T09:38:36.089Z,14.80
2022-10-07T09:41:17.399Z,15.10
2022-10-07T09:43:49.905Z,15.20
2022-10-07T09:46:41.327Z,15.30
2022-10-07T09:49:29.272Z,15.50
2022-10-07T09:52:00.444Z,15.50
2022-10-07T09:54:28.533Z,15.50
2022-10-07T09:56:57.599Z,15.80
2022-10-07T09:59:24.453Z,15.80
2022-10-07T10:01:59.137Z,15.90
2022-10-07T10:04:35.560Z,15.90
2022-10-07T10:07:17.671Z,15.90
2022-10-07T10:09:53.063Z,16.10
2022-10-07T10:12:22.106Z,16.20
2022-10-07T10:15:00.057Z,16.40
2022-10-07T10:17:34.565Z,16.40
2022-10-07T10:20:20.151Z,16.70
2022-10-07T10:22:47.450Z,16.60
2022-10-07T10:25:35.828Z,16.70
2022-10-07T10:28:13.982Z,16.80
2022-10-07T10:30:53.472Z,16.90
2022-10-07T10:33:46.649Z,17.00
2022-10-07T10:36:15.657Z,17.20
2022-10-07T10:39:00.204Z,17.30
2022-10-07T10:41:46.420Z,17.40
2022-10-07T10:44:32.297Z,17.60
2022-10-07T10:47:19.433Z,17.80
2022-10-07T10:50:06.124Z,17.90
2022-10-07T10:52:39.148Z,17.20
2022-10-07T10:55:34.922Z,17.60
2022-10-07T10:58:25.802Z,18.00
2022-10-07T11:01:27.940Z,17.90
2022-10-07T11:04:16.097Z,17.90
2022-10-07T11:06:48.639Z,18.10
2022-10-07T11:09:30.782Z,18.30
2022-10-07T11:12:03.243Z,18.40
2022-10-07T11:14:31.755Z,18.40
2022-10-07T11:17:05.021Z,18.70
2022-10-07T11:19:43.399Z,18.50
2022-10-07T11:22:17.735Z,18.60
2022-10-07T11:24:57.364Z,18.80
2022-10-07T11:27:32.612Z,18.60
2022-10-07T11:30:08.386Z,18.80
2022-10-07T11:32:42.935Z,18.60
2022-10-07T11:35:28.368Z,18.80
2022-10-07T11:38:04.896Z,19.10
2022-10-07T11:40:34.604Z,19.20
2022-10-07T11:43:20.306Z,19.20
2022-10-07T11:45:52.833Z,19.60
2022-10-07T15:38:43.393Z,24.30
2022-10-07T20:07:31.491Z,12.20
2022-10-07T20:09:58.875Z,12.00
2022-10-07T20:12:25.636Z,12.00
2022-10-07T20:14:52.467Z,12.00
2022-10-07T20:17:20.077Z,11.90
2022-10-07T20:22:12.705Z,11.70
2022-10-07T20:24:39.543Z,11.60
2022-10-07T20:27:06.433Z,11.70
2022-10-07T20:29:53.173Z,11.70
2022-10-07T20:32:19.918Z,11.70
2022-10-07T20:34:48.991Z,11.80
2022-10-07T20:37:17.198Z,11.70
2022-10-07T20:40:03.166Z,11.60
2022-10-07T20:42:32.077Z,11.60
2022-10-07T20:44:59.322Z,11.50
2022-10-07T20:47:29.963Z,11.50
2022-10-07T20:49:59.842Z,11.40
2022-10-07T20:52:28.335Z,11.40
2022-10-07T20:54:55.313Z,11.40
2022-10-07T20:57:27.865Z,11.40
2022-10-07T20:59:55.161Z,11.40
2022-10-07T21:02:24.335Z,11.40
2022-10-07T21:04:51.347Z,11.50
2022-10-07T21:07:19.748Z,11.50
2022-10-07T21:09:47.522Z,11.50
2022-10-07T21:12:16.909Z,11.50
2022-10-07T21:14:44.352Z,11.50
2022-10-07T21:17:11.797Z,11.50
2022-10-07T21:19:38.621Z,11.50
2022-10-07T21:22:06.140Z,11.50
2022-10-07T21:24:34.463Z,11.40
2022-10-07T21:27:05.882Z,11.40
2022-10-07T21:29:37.512Z,11.40
2022-10-07T21:32:06.445Z,11.40
2022-10-07T21:34:33.190Z,11.40
2022-10-07T21:37:00.253Z,11.40
2022-10-07T21:39:27.155Z,11.40
2022-10-07T21:41:54.678Z,11.40
2022-10-07T21:44:21.608Z,11.50
2022-10-07T21:46:48.451Z,11.40
2022-10-07T21:49:15.826Z,11.30
2022-10-07T21:51:43.349Z,11.20
2022-10-07T21:54:14.436Z,11.10
2022-10-07T21:56:43.528Z,11.00
2022-10-07T21:59:10.391Z,11.00
2022-10-07T22:01:38.137Z,10.80
2022-10-07T22:04:05.158Z,10.80
2022-10-07T22:06:51.147Z,10.80
2022-10-07T22:09:21.124Z,10.60
2022-10-07T22:11:51.567Z,10.50
2022-10-07T22:14:21.405Z,10.50
2022-10-07T22:16:48.561Z,10.50
2022-10-07T22:19:17.522Z,10.40
2022-10-07T22:21:45.720Z,10.50
2022-10-07T22:24:12.748Z,10.40
2022-10-07T22:26:43.726Z,10.40
2022-10-07T22:29:10.933Z,10.30
2022-10-07T22:31:38.208Z,10.30
2022-10-07T22:34:06.500Z,10.20
2022-10-07T22:36:33.712Z,10.20
2022-10-07T22:39:00.731Z,10.20
2022-10-07T22:41:27.876Z,10.20
2022-10-07T22:43:55.079Z,10.10
2022-10-07T22:46:26.778Z,10.00
2022-10-07T22:48:58.168Z,10.10
2022-10-07T22:51:29.257Z,10.00
2022-10-07T22:53:57.078Z,10.10
2022-10-07T22:56:26.024Z,10.00
2022-10-07T22:58:56.760Z,10.00
2022-10-07T23:01:23.740Z,10.00
2022-10-07T23:03:52.705Z,10.00
2022-10-07T23:06:19.932Z,10.00
2022-10-07T23:08:48.161Z,10.10
2022-10-07T23:11:17.920Z,10.10
2022-10-07T23:13:45.968Z,10.10
2022-10-07T23:16:16.056Z,10.00
2022-10-07T23:18:44.934Z,10.10
2022-10-07T23:21:13.151Z,10.00
2022-10-07T23:23:42.528Z,10.00
2022-10-07T23:26:14.921Z,10.00
2022-10-07T23:28:42.940Z,9.90
2022-10-07T23:31:11.949Z,9.80
2022-10-07T23:33:38.859Z,9.80
2022-10-07T23:36:08.931Z,9.70
2022-10-07T23:38:40.099Z,9.70
2022-10-07T23:41:07.315Z,9.70
2022-10-07T23:43:34.689Z,9.60
2022-10-07T23:46:02.982Z,9.60
2022-10-07T23:48:34.623Z,9.50
2022-10-07T23:51:03.339Z,9.40
2022-10-07T23:53:31.377Z,9.50
2022-10-07T23:55:58.271Z,9.50
2022-10-07T23:58:26.759Z,9.40
